sensor_id;sensor_type;location;lat;lon;timestamp;P1;durP1;ratioP1;P2;durP2;ratioP2
34783;SDS011;20998;51.388;7.032;2023-06-14T00:00:11;8.50;;;4.43;;
34783;SDS011;20998;51.388;7.032;2023-06-14T00:02:38;6.40;;;4.23;;
34783;SDS011;20998;51.388;7.032;2023-06-14T00:05:07;5.47;;;4.37;;
34783;SDS011;20998;51.388;7.032;2023-06-14T00:07:37;7.13;;;4.03;;
34783;SDS011;20998;51.388;7.032;2023-06-14T00:10:07;7.80;;;4.37;;
34783;SDS011;20998;51.388;7.032;2023-06-14T00:12:33;6.63;;;4.13;;
34783;SDS011;20998;51.388;7.032;2023-06-14T00:15:00;7.57;;;4.63;;
34783;SDS011;20998;51.388;7.032;2023-06-14T00:17:26;8.33;;;4.30;;
34783;SDS011;20998;51.388;7.032;2023-06-14T00:19:56;7.70;;;4.17;;
34783;SDS011;20998;51.388;7.032;2023-06-14T00:22:22;9.87;;;4.77;;
34783;SDS011;20998;51.388;7.032;2023-06-14T00:24:53;7.07;;;4.30;;
34783;SDS011;20998;51.388;7.032;2023-06-14T00:27:19;5.87;;;4.13;;
34783;SDS011;20998;51.388;7.032;2023-06-14T00:29:45;6.97;;;4.43;;
34783;SDS011;20998;51.388;7.032;2023-06-14T00:32:11;5.67;;;4.03;;
34783;SDS011;20998;51.388;7.032;2023-06-14T00:34:37;11.70;;;4.37;;
34783;SDS011;20998;51.388;7.032;2023-06-14T00:37:02;9.33;;;4.63;;
34783;SDS011;20998;51.388;7.032;2023-06-14T00:39:28;6.07;;;4.30;;
34783;SDS011;20998;51.388;7.032;2023-06-14T00:41:54;7.73;;;4.37;;
34783;SDS011;20998;51.388;7.032;2023-06-14T00:44:20;10.03;;;5.00;;
34783;SDS011;20998;51.388;7.032;2023-06-14T00:46:46;7.93;;;4.43;;
34783;SDS011;20998;51.388;7.032;2023-06-14T00:49:15;8.80;;;4.90;;
34783;SDS011;20998;51.388;7.032;2023-06-14T00:51:44;13.73;;;4.77;;
34783;SDS011;20998;51.388;7.032;2023-06-14T00:54:10;6.83;;;4.13;;
34783;SDS011;20998;51.388;7.032;2023-06-14T00:56:36;8.13;;;4.73;;
34783;SDS011;20998;51.388;7.032;2023-06-14T00:59:03;7.20;;;4.40;;
34783;SDS011;20998;51.388;7.032;2023-06-14T01:01:31;11.17;;;4.37;;
34783;SDS011;20998;51.388;7.032;2023-06-14T01:04:00;6.60;;;4.67;;
34783;SDS011;20998;51.388;7.032;2023-06-14T01:09:18;6.47;;;4.40;;
34783;SDS011;20998;51.388;7.032;2023-06-14T01:12:18;8.30;;;4.30;;
34783;SDS011;20998;51.388;7.032;2023-06-14T01:14:49;7.20;;;4.17;;
34783;SDS011;20998;51.388;7.032;2023-06-14T01:17:16;10.10;;;4.37;;
34783;SDS011;20998;51.388;7.032;2023-06-14T01:19:43;7.23;;;4.07;;
34783;SDS011;20998;51.388;7.032;2023-06-14T01:22:09;9.03;;;4.50;;
34783;SDS011;20998;51.388;7.032;2023-06-14T01:24:35;7.03;;;4.40;;
34783;SDS011;20998;51.388;7.032;2023-06-14T01:27:04;8.73;;;4.47;;
34783;SDS011;20998;51.388;7.032;2023-06-14T01:29:30;12.53;;;4.50;;
34783;SDS011;20998;51.388;7.032;2023-06-14T01:31:58;7.30;;;4.37;;
34783;SDS011;20998;51.388;7.032;2023-06-14T01:34:24;8.23;;;4.70;;
34783;SDS011;20998;51.388;7.032;2023-06-14T01:36:50;6.17;;;4.17;;
34783;SDS011;20998;51.388;7.032;2023-06-14T01:39:20;7.63;;;5.17;;
34783;SDS011;20998;51.388;7.032;2023-06-14T01:41:47;5.57;;;4.00;;
34783;SDS011;20998;51.388;7.032;2023-06-14T01:44:14;10.67;;;4.67;;
34783;SDS011;20998;51.388;7.032;2023-06-14T01:46:42;10.53;;;4.57;;
34783;SDS011;20998;51.388;7.032;2023-06-14T01:49:08;7.60;;;4.50;;
34783;SDS011;20998;51.388;7.032;2023-06-14T01:51:34;10.03;;;5.07;;
34783;SDS011;20998;51.388;7.032;2023-06-14T01:54:01;13.27;;;4.20;;
34783;SDS011;20998;51.388;7.032;2023-06-14T01:56:27;7.00;;;4.07;;
34783;SDS011;20998;51.388;7.032;2023-06-14T01:58:53;6.13;;;4.27;;
34783;SDS011;20998;51.388;7.032;2023-06-14T02:01:19;8.93;;;4.20;;
34783;SDS011;20998;51.388;7.032;2023-06-14T02:03:46;7.50;;;4.00;;
34783;SDS011;20998;51.388;7.032;2023-06-14T02:06:13;6.20;;;4.53;;
34783;SDS011;20998;51.388;7.032;2023-06-14T02:08:40;7.00;;;4.27;;
34783;SDS011;20998;51.388;7.032;2023-06-14T02:11:07;7.50;;;4.50;;
34783;SDS011;20998;51.388;7.032;2023-06-14T02:13:33;5.63;;;4.53;;
34783;SDS011;20998;51.388;7.032;2023-06-14T02:15:59;8.70;;;4.83;;
34783;SDS011;20998;51.388;7.032;2023-06-14T02:18:25;6.13;;;4.30;;
34783;SDS011;20998;51.388;7.032;2023-06-14T02:20:52;7.50;;;4.70;;
34783;SDS011;20998;51.388;7.032;2023-06-14T02:23:18;6.30;;;4.40;;
34783;SDS011;20998;51.388;7.032;2023-06-14T02:25:44;6.27;;;4.37;;
34783;SDS011;20998;51.388;7.032;2023-06-14T02:28:11;11.53;;;4.70;;
34783;SDS011;20998;51.388;7.032;2023-06-14T02:30:37;6.83;;;4.27;;
34783;SDS011;20998;51.388;7.032;2023-06-14T02:33:03;7.63;;;4.47;;
34783;SDS011;20998;51.388;7.032;2023-06-14T02:35:30;7.10;;;4.43;;
34783;SDS011;20998;51.388;7.032;2023-06-14T02:37:56;14.57;;;4.27;;
34783;SDS011;20998;51.388;7.032;2023-06-14T02:40:22;6.17;;;4.60;;
34783;SDS011;20998;51.388;7.032;2023-06-14T02:42:48;10.30;;;4.67;;
34783;SDS011;20998;51.388;7.032;2023-06-14T02:45:14;5.30;;;4.10;;
34783;SDS011;20998;51.388;7.032;2023-06-14T02:47:40;7.30;;;4.77;;
34783;SDS011;20998;51.388;7.032;2023-06-14T02:50:06;7.60;;;4.00;;
34783;SDS011;20998;51.388;7.032;2023-06-14T02:52:32;6.57;;;4.20;;
34783;SDS011;20998;51.388;7.032;2023-06-14T02:54:58;6.53;;;4.57;;
34783;SDS011;20998;51.388;7.032;2023-06-14T02:57:24;10.00;;;5.03;;
34783;SDS011;20998;51.388;7.032;2023-06-14T02:59:50;7.97;;;4.70;;
34783;SDS011;20998;51.388;7.032;2023-06-14T03:02:17;6.87;;;3.83;;
34783;SDS011;20998;51.388;7.032;2023-06-14T03:04:43;14.07;;;4.63;;
34783;SDS011;20998;51.388;7.032;2023-06-14T03:07:11;9.40;;;5.13;;
34783;SDS011;20998;51.388;7.032;2023-06-14T03:09:38;15.27;;;4.13;;
34783;SDS011;20998;51.388;7.032;2023-06-14T03:12:04;7.77;;;4.63;;
34783;SDS011;20998;51.388;7.032;2023-06-14T03:14:32;7.67;;;4.57;;
34783;SDS011;20998;51.388;7.032;2023-06-14T03:16:58;7.10;;;4.37;;
34783;SDS011;20998;51.388;7.032;2023-06-14T03:19:25;5.47;;;4.07;;
34783;SDS011;20998;51.388;7.032;2023-06-14T03:21:51;6.77;;;4.57;;
34783;SDS011;20998;51.388;7.032;2023-06-14T03:24:18;8.63;;;4.53;;
34783;SDS011;20998;51.388;7.032;2023-06-14T03:26:45;6.70;;;4.63;;
34783;SDS011;20998;51.388;7.032;2023-06-14T03:29:11;5.77;;;4.10;;
34783;SDS011;20998;51.388;7.032;2023-06-14T03:31:41;9.73;;;4.60;;
34783;SDS011;20998;51.388;7.032;2023-06-14T03:34:22;7.53;;;4.70;;
34783;SDS011;20998;51.388;7.032;2023-06-14T03:36:48;7.40;;;4.30;;
34783;SDS011;20998;51.388;7.032;2023-06-14T03:39:14;6.60;;;4.50;;
34783;SDS011;20998;51.388;7.032;2023-06-14T03:41:40;8.27;;;4.27;;
34783;SDS011;20998;51.388;7.032;2023-06-14T03:44:06;6.00;;;4.23;;
34783;SDS011;20998;51.388;7.032;2023-06-14T03:46:32;6.27;;;4.47;;
34783;SDS011;20998;51.388;7.032;2023-06-14T03:48:58;5.43;;;3.90;;
34783;SDS011;20998;51.388;7.032;2023-06-14T03:51:23;6.60;;;4.03;;
34783;SDS011;20998;51.388;7.032;2023-06-14T03:53:50;6.30;;;4.00;;
34783;SDS011;20998;51.388;7.032;2023-06-14T03:56:16;6.43;;;4.07;;
34783;SDS011;20998;51.388;7.032;2023-06-14T03:58:42;8.77;;;4.53;;
34783;SDS011;20998;51.388;7.032;2023-06-14T04:01:07;8.37;;;4.10;;
34783;SDS011;20998;51.388;7.032;2023-06-14T04:03:33;8.73;;;4.27;;
34783;SDS011;20998;51.388;7.032;2023-06-14T04:05:59;11.47;;;4.47;;
34783;SDS011;20998;51.388;7.032;2023-06-14T04:08:25;8.73;;;4.63;;
34783;SDS011;20998;51.388;7.032;2023-06-14T04:10:51;10.63;;;4.70;;
34783;SDS011;20998;51.388;7.032;2023-06-14T04:13:17;6.37;;;4.50;;
34783;SDS011;20998;51.388;7.032;2023-06-14T04:15:43;6.63;;;4.17;;
34783;SDS011;20998;51.388;7.032;2023-06-14T04:18:10;5.30;;;3.90;;
34783;SDS011;20998;51.388;7.032;2023-06-14T04:20:37;7.17;;;4.00;;
34783;SDS011;20998;51.388;7.032;2023-06-14T04:23:13;6.27;;;4.00;;
34783;SDS011;20998;51.388;7.032;2023-06-14T04:25:42;8.80;;;4.70;;
34783;SDS011;20998;51.388;7.032;2023-06-14T04:28:10;6.60;;;4.30;;
34783;SDS011;20998;51.388;7.032;2023-06-14T04:30:37;5.50;;;3.63;;
34783;SDS011;20998;51.388;7.032;2023-06-14T04:33:04;6.80;;;4.53;;
34783;SDS011;20998;51.388;7.032;2023-06-14T04:35:30;7.60;;;3.80;;
34783;SDS011;20998;51.388;7.032;2023-06-14T04:37:57;12.27;;;4.23;;
34783;SDS011;20998;51.388;7.032;2023-06-14T04:40:24;12.13;;;3.97;;
34783;SDS011;20998;51.388;7.032;2023-06-14T04:42:50;6.10;;;4.23;;
34783;SDS011;20998;51.388;7.032;2023-06-14T04:45:16;6.37;;;3.90;;
34783;SDS011;20998;51.388;7.032;2023-06-14T04:47:42;6.80;;;4.43;;
34783;SDS011;20998;51.388;7.032;2023-06-14T04:50:09;7.87;;;3.90;;
34783;SDS011;20998;51.388;7.032;2023-06-14T04:52:36;5.17;;;3.80;;
34783;SDS011;20998;51.388;7.032;2023-06-14T04:55:02;5.67;;;3.80;;
34783;SDS011;20998;51.388;7.032;2023-06-14T04:57:28;6.10;;;3.73;;
34783;SDS011;20998;51.388;7.032;2023-06-14T04:59:55;4.83;;;3.60;;
34783;SDS011;20998;51.388;7.032;2023-06-14T05:02:22;5.73;;;3.30;;
34783;SDS011;20998;51.388;7.032;2023-06-14T05:04:49;4.80;;;3.60;;
34783;SDS011;20998;51.388;7.032;2023-06-14T05:07:15;7.23;;;4.53;;
34783;SDS011;20998;51.388;7.032;2023-06-14T05:09:41;6.10;;;3.87;;
34783;SDS011;20998;51.388;7.032;2023-06-14T05:12:07;7.60;;;3.83;;
34783;SDS011;20998;51.388;7.032;2023-06-14T05:14:33;17.50;;;4.30;;
34783;SDS011;20998;51.388;7.032;2023-06-14T05:16:59;4.13;;;3.30;;
34783;SDS011;20998;51.388;7.032;2023-06-14T05:19:25;4.90;;;3.37;;
34783;SDS011;20998;51.388;7.032;2023-06-14T05:21:52;10.37;;;3.97;;
34783;SDS011;20998;51.388;7.032;2023-06-14T05:24:18;11.33;;;3.17;;
34783;SDS011;20998;51.388;7.032;2023-06-14T05:26:44;7.07;;;4.00;;
34783;SDS011;20998;51.388;7.032;2023-06-14T05:29:11;12.43;;;3.23;;
34783;SDS011;20998;51.388;7.032;2023-06-14T05:31:36;4.27;;;2.93;;
34783;SDS011;20998;51.388;7.032;2023-06-14T05:34:02;6.60;;;4.13;;
34783;SDS011;20998;51.388;7.032;2023-06-14T05:36:28;12.70;;;3.27;;
34783;SDS011;20998;51.388;7.032;2023-06-14T05:38:55;7.90;;;3.53;;
34783;SDS011;20998;51.388;7.032;2023-06-14T05:41:24;6.40;;;3.33;;
34783;SDS011;20998;51.388;7.032;2023-06-14T05:43:53;5.43;;;3.07;;
34783;SDS011;20998;51.388;7.032;2023-06-14T05:46:20;8.33;;;3.63;;
34783;SDS011;20998;51.388;7.032;2023-06-14T05:48:49;9.37;;;3.67;;
34783;SDS011;20998;51.388;7.032;2023-06-14T05:51:15;4.77;;;3.07;;
34783;SDS011;20998;51.388;7.032;2023-06-14T05:53:44;5.43;;;3.33;;
34783;SDS011;20998;51.388;7.032;2023-06-14T05:56:10;3.80;;;3.03;;
34783;SDS011;20998;51.388;7.032;2023-06-14T05:58:36;5.23;;;2.97;;
34783;SDS011;20998;51.388;7.032;2023-06-14T06:01:02;3.97;;;2.80;;
34783;SDS011;20998;51.388;7.032;2023-06-14T06:03:27;7.60;;;3.60;;
34783;SDS011;20998;51.388;7.032;2023-06-14T06:05:54;6.10;;;3.00;;
34783;SDS011;20998;51.388;7.032;2023-06-14T06:08:20;15.47;;;3.53;;
34783;SDS011;20998;51.388;7.032;2023-06-14T06:10:46;4.83;;;2.87;;
34783;SDS011;20998;51.388;7.032;2023-06-14T06:13:12;6.23;;;3.20;;
34783;SDS011;20998;51.388;7.032;2023-06-14T06:15:38;10.63;;;3.60;;
34783;SDS011;20998;51.388;7.032;2023-06-14T06:18:04;6.57;;;2.63;;
34783;SDS011;20998;51.388;7.032;2023-06-14T06:20:30;4.77;;;2.70;;
34783;SDS011;20998;51.388;7.032;2023-06-14T06:22:59;5.67;;;2.70;;
34783;SDS011;20998;51.388;7.032;2023-06-14T06:25:25;5.20;;;3.00;;
34783;SDS011;20998;51.388;7.032;2023-06-14T06:27:52;3.33;;;2.40;;
34783;SDS011;20998;51.388;7.032;2023-06-14T06:30:19;5.17;;;2.53;;
34783;SDS011;20998;51.388;7.032;2023-06-14T06:32:45;5.37;;;2.60;;
34783;SDS011;20998;51.388;7.032;2023-06-14T06:35:11;6.70;;;2.50;;
34783;SDS011;20998;51.388;7.032;2023-06-14T06:37:38;4.97;;;2.80;;
34783;SDS011;20998;51.388;7.032;2023-06-14T06:40:04;7.53;;;2.97;;
34783;SDS011;20998;51.388;7.032;2023-06-14T06:42:31;13.27;;;2.90;;
34783;SDS011;20998;51.388;7.032;2023-06-14T06:44:57;2.97;;;2.27;;
34783;SDS011;20998;51.388;7.032;2023-06-14T06:47:23;4.93;;;2.70;;
34783;SDS011;20998;51.388;7.032;2023-06-14T06:49:50;6.97;;;2.37;;
34783;SDS011;20998;51.388;7.032;2023-06-14T06:52:16;3.67;;;1.97;;
34783;SDS011;20998;51.388;7.032;2023-06-14T06:54:42;5.40;;;2.80;;
34783;SDS011;20998;51.388;7.032;2023-06-14T06:57:08;8.00;;;2.43;;
34783;SDS011;20998;51.388;7.032;2023-06-14T06:59:33;5.60;;;2.00;;
34783;SDS011;20998;51.388;7.032;2023-06-14T07:02:00;3.80;;;1.83;;
34783;SDS011;20998;51.388;7.032;2023-06-14T07:04:26;4.80;;;2.30;;
34783;SDS011;20998;51.388;7.032;2023-06-14T07:06:51;5.03;;;2.10;;
34783;SDS011;20998;51.388;7.032;2023-06-14T07:09:17;3.63;;;1.93;;
34783;SDS011;20998;51.388;7.032;2023-06-14T07:11:44;6.13;;;2.33;;
34783;SDS011;20998;51.388;7.032;2023-06-14T07:14:11;2.87;;;1.97;;
34783;SDS011;20998;51.388;7.032;2023-06-14T07:16:37;2.57;;;1.87;;
34783;SDS011;20998;51.388;7.032;2023-06-14T07:19:03;3.37;;;1.97;;
34783;SDS011;20998;51.388;7.032;2023-06-14T07:21:29;6.13;;;1.80;;
34783;SDS011;20998;51.388;7.032;2023-06-14T07:23:55;3.73;;;2.03;;
34783;SDS011;20998;51.388;7.032;2023-06-14T07:26:21;6.97;;;2.10;;
34783;SDS011;20998;51.388;7.032;2023-06-14T07:28:48;3.20;;;1.87;;
34783;SDS011;20998;51.388;7.032;2023-06-14T07:31:17;3.17;;;1.83;;
34783;SDS011;20998;51.388;7.032;2023-06-14T07:33:44;5.37;;;1.90;;
34783;SDS011;20998;51.388;7.032;2023-06-14T07:36:10;10.33;;;1.90;;
34783;SDS011;20998;51.388;7.032;2023-06-14T07:38:36;3.67;;;2.23;;
34783;SDS011;20998;51.388;7.032;2023-06-14T07:41:02;6.17;;;1.90;;
34783;SDS011;20998;51.388;7.032;2023-06-14T07:43:28;3.87;;;2.00;;
34783;SDS011;20998;51.388;7.032;2023-06-14T07:45:54;3.50;;;2.00;;
34783;SDS011;20998;51.388;7.032;2023-06-14T07:48:20;2.63;;;1.73;;
34783;SDS011;20998;51.388;7.032;2023-06-14T07:50:46;3.03;;;2.30;;
34783;SDS011;20998;51.388;7.032;2023-06-14T07:53:12;2.33;;;1.80;;
34783;SDS011;20998;51.388;7.032;2023-06-14T07:55:38;2.50;;;1.73;;
34783;SDS011;20998;51.388;7.032;2023-06-14T07:58:05;4.33;;;1.87;;
34783;SDS011;20998;51.388;7.032;2023-06-14T08:00:31;4.97;;;1.77;;
34783;SDS011;20998;51.388;7.032;2023-06-14T08:02:57;3.93;;;1.80;;
34783;SDS011;20998;51.388;7.032;2023-06-14T08:05:24;2.27;;;1.70;;
34783;SDS011;20998;51.388;7.032;2023-06-14T08:07:50;2.83;;;1.70;;
34783;SDS011;20998;51.388;7.032;2023-06-14T08:10:16;7.20;;;1.83;;
34783;SDS011;20998;51.388;7.032;2023-06-14T08:12:42;10.43;;;1.97;;
34783;SDS011;20998;51.388;7.032;2023-06-14T08:15:08;8.53;;;1.87;;
34783;SDS011;20998;51.388;7.032;2023-06-14T08:17:35;12.40;;;1.90;;
34783;SDS011;20998;51.388;7.032;2023-06-14T08:20:01;3.50;;;2.07;;
34783;SDS011;20998;51.388;7.032;2023-06-14T08:22:28;5.37;;;1.73;;
34783;SDS011;20998;51.388;7.032;2023-06-14T08:24:56;1.73;;;1.50;;
34783;SDS011;20998;51.388;7.032;2023-06-14T08:27:22;1.80;;;1.40;;
34783;SDS011;20998;51.388;7.032;2023-06-14T08:29:48;1.70;;;1.60;;
34783;SDS011;20998;51.388;7.032;2023-06-14T08:32:15;3.83;;;1.88;;
34783;SDS011;20998;51.388;7.032;2023-06-14T08:34:40;3.33;;;1.75;;
34783;SDS011;20998;51.388;7.032;2023-06-14T08:37:06;2.33;;;1.75;;
34783;SDS011;20998;51.388;7.032;2023-06-14T08:39:32;5.63;;;1.80;;
34783;SDS011;20998;51.388;7.032;2023-06-14T08:41:58;3.08;;;1.70;;
34783;SDS011;20998;51.388;7.032;2023-06-14T08:44:24;1.88;;;1.48;;
34783;SDS011;20998;51.388;7.032;2023-06-14T08:46:50;9.27;;;1.65;;
34783;SDS011;20998;51.388;7.032;2023-06-14T08:49:18;5.82;;;1.50;;
34783;SDS011;20998;51.388;7.032;2023-06-14T08:51:44;2.30;;;1.38;;
34783;SDS011;20998;51.388;7.032;2023-06-14T08:54:12;3.25;;;1.70;;
34783;SDS011;20998;51.388;7.032;2023-06-14T08:56:38;2.17;;;1.42;;
34783;SDS011;20998;51.388;7.032;2023-06-14T08:59:06;4.63;;;1.40;;
34783;SDS011;20998;51.388;7.032;2023-06-14T09:01:33;3.40;;;1.63;;
34783;SDS011;20998;51.388;7.032;2023-06-14T09:04:00;3.13;;;1.95;;
34783;SDS011;20998;51.388;7.032;2023-06-14T09:06:27;9.25;;;2.30;;
34783;SDS011;20998;51.388;7.032;2023-06-14T09:08:54;3.53;;;2.33;;
34783;SDS011;20998;51.388;7.032;2023-06-14T09:11:22;4.40;;;2.20;;
34783;SDS011;20998;51.388;7.032;2023-06-14T09:13:48;4.00;;;2.00;;
34783;SDS011;20998;51.388;7.032;2023-06-14T09:16:14;1.92;;;1.63;;
34783;SDS011;20998;51.388;7.032;2023-06-14T09:18:44;2.35;;;1.70;;
34783;SDS011;20998;51.388;7.032;2023-06-14T09:21:13;5.32;;;1.80;;
34783;SDS011;20998;51.388;7.032;2023-06-14T09:23:40;5.63;;;1.60;;
34783;SDS011;20998;51.388;7.032;2023-06-14T09:26:11;1.70;;;1.40;;
34783;SDS011;20998;51.388;7.032;2023-06-14T09:28:41;5.50;;;1.25;;
34783;SDS011;20998;51.388;7.032;2023-06-14T09:31:07;1.77;;;1.38;;
34783;SDS011;20998;51.388;7.032;2023-06-14T09:33:34;1.80;;;1.10;;
34783;SDS011;20998;51.388;7.032;2023-06-14T09:36:00;1.35;;;1.05;;
34783;SDS011;20998;51.388;7.032;2023-06-14T09:38:26;14.13;;;1.48;;
34783;SDS011;20998;51.388;7.032;2023-06-14T09:40:54;2.25;;;1.40;;
34783;SDS011;20998;51.388;7.032;2023-06-14T09:43:21;1.83;;;1.40;;
34783;SDS011;20998;51.388;7.032;2023-06-14T09:45:47;5.47;;;1.58;;
34783;SDS011;20998;51.388;7.032;2023-06-14T09:48:14;2.00;;;1.17;;
34783;SDS011;20998;51.388;7.032;2023-06-14T09:50:44;1.90;;;1.33;;
34783;SDS011;20998;51.388;7.032;2023-06-14T09:53:11;6.78;;;1.23;;
34783;SDS011;20998;51.388;7.032;2023-06-14T09:55:38;2.03;;;1.20;;
34783;SDS011;20998;51.388;7.032;2023-06-14T09:58:07;11.13;;;1.23;;
34783;SDS011;20998;51.388;7.032;2023-06-14T10:00:33;2.83;;;1.20;;
34783;SDS011;20998;51.388;7.032;2023-06-14T10:03:11;1.30;;;1.20;;
34783;SDS011;20998;51.388;7.032;2023-06-14T10:05:44;2.65;;;1.30;;
34783;SDS011;20998;51.388;7.032;2023-06-14T10:08:19;1.30;;;1.13;;
34783;SDS011;20998;51.388;7.032;2023-06-14T10:10:48;4.22;;;1.40;;
34783;SDS011;20998;51.388;7.032;2023-06-14T10:13:15;2.22;;;1.00;;
34783;SDS011;20998;51.388;7.032;2023-06-14T10:15:44;5.20;;;1.10;;
34783;SDS011;20998;51.388;7.032;2023-06-14T10:23:44;2.22;;;1.27;;
34783;SDS011;20998;51.388;7.032;2023-06-14T10:26:22;1.67;;;1.13;;
34783;SDS011;20998;51.388;7.032;2023-06-14T10:28:56;1.08;;;0.98;;
34783;SDS011;20998;51.388;7.032;2023-06-14T10:31:48;1.20;;;1.10;;
34783;SDS011;20998;51.388;7.032;2023-06-14T10:34:22;1.13;;;1.00;;
34783;SDS011;20998;51.388;7.032;2023-06-14T10:37:11;2.63;;;1.50;;
34783;SDS011;20998;51.388;7.032;2023-06-14T10:39:43;1.15;;;1.05;;
34783;SDS011;20998;51.388;7.032;2023-06-14T10:42:10;1.10;;;1.00;;
34783;SDS011;20998;51.388;7.032;2023-06-14T10:47:05;1.40;;;1.10;;
34783;SDS011;20998;51.388;7.032;2023-06-14T10:49:36;1.50;;;1.25;;
34783;SDS011;20998;51.388;7.032;2023-06-14T10:52:07;1.55;;;1.38;;
34783;SDS011;20998;51.388;7.032;2023-06-14T10:54:37;2.30;;;1.60;;
34783;SDS011;20998;51.388;7.032;2023-06-14T10:57:03;4.65;;;1.05;;
34783;SDS011;20998;51.388;7.032;2023-06-14T10:59:32;1.88;;;1.40;;
34783;SDS011;20998;51.388;7.032;2023-06-14T11:02:04;3.10;;;1.55;;
34783;SDS011;20998;51.388;7.032;2023-06-14T11:04:47;0.88;;;0.85;;
34783;SDS011;20998;51.388;7.032;2023-06-14T11:12:25;7.68;;;1.60;;
34783;SDS011;20998;51.388;7.032;2023-06-14T11:14:53;2.05;;;1.42;;
34783;SDS011;20998;51.388;7.032;2023-06-14T11:17:19;3.72;;;1.10;;
34783;SDS011;20998;51.388;7.032;2023-06-14T11:19:45;1.40;;;1.30;;
34783;SDS011;20998;51.388;7.032;2023-06-14T11:22:11;1.35;;;1.10;;
34783;SDS011;20998;51.388;7.032;2023-06-14T11:24:37;1.50;;;1.40;;
34783;SDS011;20998;51.388;7.032;2023-06-14T11:27:03;2.05;;;1.13;;
34783;SDS011;20998;51.388;7.032;2023-06-14T11:29:29;5.63;;;1.20;;
34783;SDS011;20998;51.388;7.032;2023-06-14T11:31:56;1.55;;;1.30;;
34783;SDS011;20998;51.388;7.032;2023-06-14T11:34:22;4.68;;;1.40;;
34783;SDS011;20998;51.388;7.032;2023-06-14T11:36:48;2.80;;;1.25;;
34783;SDS011;20998;51.388;7.032;2023-06-14T11:39:14;4.32;;;1.30;;
34783;SDS011;20998;51.388;7.032;2023-06-14T11:41:41;3.10;;;1.10;;
34783;SDS011;20998;51.388;7.032;2023-06-14T11:44:08;7.97;;;1.30;;
34783;SDS011;20998;51.388;7.032;2023-06-14T11:46:34;1.38;;;1.25;;
34783;SDS011;20998;51.388;7.032;2023-06-14T11:49:01;1.67;;;1.25;;
34783;SDS011;20998;51.388;7.032;2023-06-14T11:51:32;7.60;;;2.80;;
34783;SDS011;20998;51.388;7.032;2023-06-14T11:53:58;1.42;;;1.13;;
34783;SDS011;20998;51.388;7.032;2023-06-14T11:56:25;2.38;;;1.08;;
34783;SDS011;20998;51.388;7.032;2023-06-14T11:58:52;1.23;;;1.13;;
34783;SDS011;20998;51.388;7.032;2023-06-14T12:01:21;4.45;;;1.60;;
34783;SDS011;20998;51.388;7.032;2023-06-14T12:03:48;3.20;;;1.20;;
34783;SDS011;20998;51.388;7.032;2023-06-14T12:06:16;2.83;;;1.20;;
34783;SDS011;20998;51.388;7.032;2023-06-14T12:08:55;1.30;;;1.20;;
34783;SDS011;20998;51.388;7.032;2023-06-14T12:11:21;2.33;;;1.30;;
34783;SDS011;20998;51.388;7.032;2023-06-14T12:13:47;3.40;;;1.40;;
34783;SDS011;20998;51.388;7.032;2023-06-14T12:16:14;3.40;;;1.40;;
34783;SDS011;20998;51.388;7.032;2023-06-14T12:18:40;2.53;;;1.42;;
34783;SDS011;20998;51.388;7.032;2023-06-14T12:21:08;2.13;;;1.50;;
34783;SDS011;20998;51.388;7.032;2023-06-14T12:23:44;1.75;;;1.42;;
34783;SDS011;20998;51.388;7.032;2023-06-14T12:26:18;3.17;;;1.55;;
34783;SDS011;20998;51.388;7.032;2023-06-14T12:28:45;2.30;;;1.52;;
34783;SDS011;20998;51.388;7.032;2023-06-14T12:31:11;4.38;;;1.73;;
34783;SDS011;20998;51.388;7.032;2023-06-14T12:33:38;4.80;;;1.70;;
34783;SDS011;20998;51.388;7.032;2023-06-14T12:36:04;1.92;;;1.73;;
34783;SDS011;20998;51.388;7.032;2023-06-14T12:38:32;2.35;;;1.70;;
34783;SDS011;20998;51.388;7.032;2023-06-14T12:40:58;2.80;;;1.80;;
34783;SDS011;20998;51.388;7.032;2023-06-14T12:43:24;1.85;;;1.73;;
34783;SDS011;20998;51.388;7.032;2023-06-14T12:45:50;2.35;;;1.65;;
34783;SDS011;20998;51.388;7.032;2023-06-14T12:48:16;3.97;;;1.80;;
34783;SDS011;20998;51.388;7.032;2023-06-14T12:50:42;1.90;;;1.70;;
34783;SDS011;20998;51.388;7.032;2023-06-14T12:53:08;3.63;;;2.08;;
34783;SDS011;20998;51.388;7.032;2023-06-14T12:55:34;4.07;;;2.22;;
34783;SDS011;20998;51.388;7.032;2023-06-14T12:58:00;2.92;;;1.73;;
34783;SDS011;20998;51.388;7.032;2023-06-14T13:00:26;2.35;;;1.80;;
34783;SDS011;20998;51.388;7.032;2023-06-14T13:02:52;3.65;;;1.88;;
34783;SDS011;20998;51.388;7.032;2023-06-14T13:05:18;5.05;;;1.90;;
34783;SDS011;20998;51.388;7.032;2023-06-14T13:07:44;3.10;;;1.92;;
34783;SDS011;20998;51.388;7.032;2023-06-14T13:10:10;2.45;;;1.63;;
34783;SDS011;20998;51.388;7.032;2023-06-14T13:12:36;3.15;;;2.28;;
34783;SDS011;20998;51.388;7.032;2023-06-14T13:15:02;2.45;;;1.73;;
34783;SDS011;20998;51.388;7.032;2023-06-14T13:17:28;5.20;;;2.03;;
34783;SDS011;20998;51.388;7.032;2023-06-14T13:19:54;6.43;;;2.30;;
34783;SDS011;20998;51.388;7.032;2023-06-14T13:22:20;3.00;;;1.58;;
34783;SDS011;20998;51.388;7.032;2023-06-14T13:24:46;5.35;;;1.85;;
34783;SDS011;20998;51.388;7.032;2023-06-14T13:27:13;2.00;;;1.80;;
34783;SDS011;20998;51.388;7.032;2023-06-14T13:29:40;3.33;;;1.90;;
34783;SDS011;20998;51.388;7.032;2023-06-14T13:32:06;2.25;;;2.05;;
34783;SDS011;20998;51.388;7.032;2023-06-14T13:34:32;2.20;;;2.00;;
34783;SDS011;20998;51.388;7.032;2023-06-14T13:36:58;4.93;;;1.92;;
34783;SDS011;20998;51.388;7.032;2023-06-14T13:39:25;1.95;;;1.73;;
34783;SDS011;20998;51.388;7.032;2023-06-14T13:41:51;4.88;;;2.00;;
34783;SDS011;20998;51.388;7.032;2023-06-14T13:44:17;2.30;;;1.90;;
34783;SDS011;20998;51.388;7.032;2023-06-14T13:46:46;2.10;;;1.90;;
34783;SDS011;20998;51.388;7.032;2023-06-14T13:49:12;2.20;;;1.80;;
34783;SDS011;20998;51.388;7.032;2023-06-14T13:51:37;4.70;;;1.90;;
34783;SDS011;20998;51.388;7.032;2023-06-14T13:54:04;2.78;;;1.88;;
34783;SDS011;20998;51.388;7.032;2023-06-14T13:56:30;2.05;;;1.88;;
34783;SDS011;20998;51.388;7.032;2023-06-14T13:58:55;1.95;;;1.67;;
34783;SDS011;20998;51.388;7.032;2023-06-14T14:01:21;3.33;;;1.77;;
34783;SDS011;20998;51.388;7.032;2023-06-14T14:03:48;2.22;;;1.60;;
34783;SDS011;20998;51.388;7.032;2023-06-14T14:06:15;5.00;;;1.90;;
34783;SDS011;20998;51.388;7.032;2023-06-14T14:08:41;3.95;;;1.90;;
34783;SDS011;20998;51.388;7.032;2023-06-14T14:11:07;2.72;;;1.70;;
34783;SDS011;20998;51.388;7.032;2023-06-14T14:13:33;8.45;;;1.98;;
34783;SDS011;20998;51.388;7.032;2023-06-14T14:16:01;2.53;;;1.92;;
34783;SDS011;20998;51.388;7.032;2023-06-14T14:18:28;4.45;;;2.28;;
34783;SDS011;20998;51.388;7.032;2023-06-14T14:20:54;3.38;;;2.20;;
34783;SDS011;20998;51.388;7.032;2023-06-14T14:23:20;2.30;;;2.10;;
34783;SDS011;20998;51.388;7.032;2023-06-14T14:25:46;3.42;;;2.10;;
34783;SDS011;20998;51.388;7.032;2023-06-14T14:28:12;5.90;;;2.20;;
34783;SDS011;20998;51.388;7.032;2023-06-14T14:30:40;4.28;;;2.00;;
34783;SDS011;20998;51.388;7.032;2023-06-14T14:33:06;3.47;;;2.10;;
34783;SDS011;20998;51.388;7.032;2023-06-14T14:35:32;6.15;;;2.65;;
34783;SDS011;20998;51.388;7.032;2023-06-14T14:37:58;7.28;;;2.55;;
34783;SDS011;20998;51.388;7.032;2023-06-14T14:40:24;6.05;;;2.55;;
34783;SDS011;20998;51.388;7.032;2023-06-14T14:42:50;2.17;;;2.00;;
34783;SDS011;20998;51.388;7.032;2023-06-14T14:45:16;4.90;;;2.20;;
34783;SDS011;20998;51.388;7.032;2023-06-14T14:47:42;4.85;;;2.08;;
34783;SDS011;20998;51.388;7.032;2023-06-14T14:50:08;4.03;;;2.03;;
34783;SDS011;20998;51.388;7.032;2023-06-14T14:52:34;4.18;;;2.47;;
34783;SDS011;20998;51.388;7.032;2023-06-14T14:55:00;3.47;;;2.08;;
34783;SDS011;20998;51.388;7.032;2023-06-14T14:57:26;9.90;;;2.30;;
34783;SDS011;20998;51.388;7.032;2023-06-14T14:59:52;3.15;;;2.50;;